Time;durP1;ratioP1;P1;durP2;ratioP2;P2;SDS_P1;SDS_P2;PMS_P1;PMS_P2;Temp;Humidity;BMP_temperature;BMP_pressure;BME280_temperature;BME280_humidity;BME280_pressure;Samples;Min_cycle;Max_cycle;Signal;HPM_P1;HPM_P2
2023/03/04 06:02:01;;;;;;;;;52.00;41.50;;;;;5.16;57.85;65382.84;5370895;22;46569;-89
2023/03/04 06:04:26;;;;;;;;;47.00;40.75;;;;;5.27;58.06;65350.31;4974015;28;45785;-89
2023/03/04 06:06:52;;;;;;;;;49.75;38.00;;;;;5.13;58.24;65287.78;4986697;28;45559;-89
2023/03/04 06:09:19;;;;;;;;;45.25;38.50;;;;;5.32;58.33;65282.09;4993013;28;45497;-88
2023/03/04 06:11:45;;;;;;;;;52.00;40.00;;;;;4.90;57.82;65235.41;5011454;28;48128;-92
2023/03/04 06:14:10;;;;;;;;;53.25;44.00;;;;;5.13;58.04;65153.63;5007631;28;45333;-88
2023/03/04 06:16:36;;;;;;;;;49.00;40.75;;;;;4.94;57.93;65172.47;5004384;28;45461;-88
2023/03/04 06:19:01;;;;;;;;;47.00;38.00;;;;;5.24;58.04;65166.75;4993710;28;45589;-87
2023/03/04 06:21:26;;;;;;;;;51.00;40.25;;;;;5.07;57.93;65189.28;4984752;28;46998;-87
2023/03/04 06:23:52;;;;;;;;;40.25;36.50;;;;;4.88;57.51;65144.13;4990782;28;45471;-90
2023/03/04 06:26:17;;;;;;;;;46.50;37.00;;;;;4.34;57.89;65110.56;4985365;28;45436;-91
2023/03/04 06:28:44;;;;;;;;;46.50;35.75;;;;;5.28;57.70;65289.16;4978001;28;45348;-91
2023/03/04 06:31:10;;;;;;;;;45.00;37.25;;;;;5.36;57.65;65274.13;4996098;28;46833;-91
2023/03/04 06:33:35;;;;;;;;;44.50;39.25;;;;;4.87;57.56;65154.03;5007925;28;45566;-92
2023/03/04 06:36:01;;;;;;;;;43.25;37.75;;;;;4.67;57.48;65163.22;4995622;28;45556;-88
2023/03/04 06:38:26;;;;;;;;;46.75;37.50;;;;;5.19;57.47;65241.66;4977210;28;45371;-91
2023/03/04 06:40:52;;;;;;;;;48.00;39.50;;;;;5.49;57.78;65228.66;4994603;28;47539;-90
2023/03/04 06:43:18;;;;;;;;;50.50;38.50;;;;;5.41;57.97;65237.34;4976857;28;45833;-90
2023/03/04 06:45:44;;;;;;;;;46.25;36.75;;;;;4.51;58.10;65082.81;4996968;28;45620;-89
2023/03/04 06:48:09;;;;;;;;;54.00;43.25;;;;;4.89;57.85;65092.91;5004415;28;45455;-88
2023/03/04 06:50:35;;;;;;;;;47.75;40.25;;;;;5.43;58.23;65108.59;4980292;28;48326;-87
2023/03/04 06:53:00;;;;;;;;;49.75;40.25;;;;;5.43;58.08;65132.78;4998619;28;45418;-87
2023/03/04 06:55:25;;;;;;;;;51.50;40.50;;;;;4.17;58.14;65018.63;4998761;28;45367;-86
2023/03/04 06:57:51;;;;;;;;;46.75;40.75;;;;;4.77;57.95;65014.97;4998786;28;45455;-87
2023/03/04 07:00:18;;;;;;;;;45.25;36.00;;;;;5.11;58.26;65015.78;4998659;28;45336;-87
2023/03/04 07:02:43;;;;;;;;;41.00;36.00;;;;;4.83;57.68;64992.44;4966128;28;45344;-90
2023/03/04 07:05:10;;;;;;;;;41.75;36.75;;;;;4.84;58.19;64930.75;4999089;28;45415;-90
2023/03/04 07:07:36;;;;;;;;;42.25;36.00;;;;;4.74;58.13;64914.75;4979157;28;45461;-90
2023/03/04 07:10:01;;;;;;;;;41.25;36.50;;;;;4.56;58.25;64826.91;4972565;28;47407;-90
2023/03/04 07:12:26;;;;;;;;;51.25;40.00;;;;;4.89;58.36;64844.81;4981314;28;45593;-90
2023/03/04 07:14:52;;;;;;;;;48.25;38.25;;;;;5.16;58.31;64880.06;4981654;28;45425;-91
2023/03/04 07:17:17;;;;;;;;;46.25;38.25;;;;;4.92;58.31;64814.19;5000012;28;45744;-89
2023/03/04 07:19:43;;;;;;;;;41.50;35.25;;;;;5.22;58.18;64784.75;4999070;28;45422;-90
2023/03/04 07:22:09;;;;;;;;;46.50;38.50;;;;;5.00;58.14;64691.78;4999666;28;45374;-91
2023/03/04 07:24:34;;;;;;;;;45.50;36.50;;;;;5.24;58.08;64742.47;4999521;28;45411;-91
2023/03/04 07:26:59;;;;;;;;;43.00;38.00;;;;;5.19;58.34;64666.13;4982141;28;45353;-90
2023/03/04 07:29:25;;;;;;;;;44.50;37.50;;;;;5.51;57.91;64674.94;4999607;28;45458;-90
2023/03/04 07:31:50;;;;;;;;;48.50;39.50;;;;;5.00;58.38;64660.38;4981652;28;45539;-90
2023/03/04 07:34:15;;;;;;;;;42.75;37.25;;;;;5.28;58.26;64650.09;4999699;28;45264;-90
2023/03/04 07:36:41;;;;;;;;;54.25;41.50;;;;;5.71;58.25;64631.44;4999796;28;45538;-90
2023/03/04 07:39:07;;;;;;;;;55.50;44.00;;;;;5.88;58.11;64616.53;4981554;28;47271;-90
2023/03/04 07:41:35;;;;;;;;;52.00;39.00;;;;;5.90;57.67;64608.31;4981860;28;45423;-90
2023/03/04 07:44:00;;;;;;;;;53.00;38.75;;;;;5.56;57.74;64632.84;4981739;28;45427;-89
2023/03/04 07:46:26;;;;;;;;;40.00;34.50;;;;;5.85;57.50;64615.78;4981943;28;45498;-89
2023/03/04 07:48:53;;;;;;;;;51.00;38.50;;;;;5.50;57.50;64535.53;4999048;28;46331;-89
2023/03/04 07:51:21;;;;;;;;;44.50;37.00;;;;;6.05;57.29;64666.63;4999331;28;45287;-90
2023/03/04 07:53:52;;;;;;;;;42.50;37.25;;;;;6.09;57.32;64639.13;4981141;28;45400;-90
2023/03/04 07:56:20;;;;;;;;;51.25;39.25;;;;;6.10;57.27;64646.03;4981713;28;45415;-89
2023/03/04 07:58:46;;;;;;;;;48.75;38.75;;;;;5.78;57.24;64639.31;4981069;28;47202;-89
2023/03/04 08:01:15;;;;;;;;;46.75;37.00;;;;;5.87;57.08;64601.72;4980764;28;45884;-90
2023/03/04 08:03:41;;;;;;;;;55.50;40.50;;;;;5.91;57.32;64572.72;4981021;28;45388;-87
2023/03/04 08:06:09;;;;;;;;;47.25;40.00;;;;;6.42;57.01;64517.81;4998752;28;45391;-86
2023/03/04 08:08:36;;;;;;;;;49.25;41.00;;;;;5.91;56.90;64483.59;4998034;28;45381;-87
2023/03/04 08:11:21;;;;;;;;;55.00;45.00;;;;;6.62;56.83;64545.00;4997838;28;45318;-86
2023/03/04 08:13:47;;;;;;;;;52.00;41.75;;;;;5.79;56.46;64438.09;4996009;28;45362;-86
2023/03/04 08:16:15;;;;;;;;;50.25;40.25;;;;;6.09;55.78;64555.22;4998414;28;45276;-87
2023/03/04 08:18:47;;;;;;;;;50.75;41.00;;;;;6.23;56.05;64510.66;4996507;28;48696;-86
2023/03/04 08:21:14;;;;;;;;;44.50;39.00;;;;;6.75;56.08;64526.06;4996537;28;45891;-87
2023/03/04 08:23:41;;;;;;;;;49.00;40.25;;;;;7.09;55.32;64581.59;4980491;28;45496;-87
2023/03/04 08:26:23;;;;;;;;;46.00;38.00;;;;;7.16;55.63;64694.00;4980815;28;45435;-87
2023/03/04 08:28:49;;;;;;;;;27.50;23.00;;;;;6.86;55.32;64629.22;4997663;28;45399;-87
2023/03/04 08:31:16;;;;;;;;;51.75;40.25;;;;;7.28;55.00;64665.50;4996238;28;45750;-87
2023/03/04 08:33:42;;;;;;;;;51.75;39.25;;;;;7.21;55.27;64622.88;4997854;28;45464;-87
2023/03/04 08:36:08;;;;;;;;;44.25;37.75;;;;;7.30;55.17;64552.16;4996665;28;45372;-87
2023/03/04 08:38:33;;;;;;;;;42.50;35.00;;;;;7.38;54.81;64592.13;4997777;28;45450;-87
2023/03/04 08:40:59;;;;;;;;;38.00;34.50;;;;;7.49;54.86;64599.28;4996050;28;46078;-86
2023/03/04 08:43:25;;;;;;;;;52.50;39.00;;;;;7.65;54.61;64687.69;4998119;28;45301;-87
2023/03/04 08:45:54;;;;;;;;;38.25;35.00;;;;;7.69;54.29;64639.06;4979888;28;45634;-87
2023/03/04 08:48:21;;;;;;;;;42.25;36.25;;;;;7.75;54.42;64693.72;4997408;28;45552;-87
2023/03/04 08:50:47;;;;;;;;;42.50;36.75;;;;;7.32;54.30;64509.72;4997428;28;45379;-87
2023/03/04 08:53:14;;;;;;;;;45.25;36.00;;;;;7.24;54.86;64513.88;4997533;28;45424;-87
2023/03/04 08:55:40;;;;;;;;;42.25;31.75;;;;;7.95;55.03;64515.81;4980234;28;45369;-86
2023/03/04 08:58:08;;;;;;;;;42.25;33.75;;;;;8.02;54.81;64528.41;4980025;28;46431;-87
2023/03/04 09:00:35;;;;;;;;;45.50;37.25;;;;;8.07;54.25;64507.16;4996980;28;45539;-87
2023/03/04 09:03:02;;;;;;;;;38.25;33.25;;;;;7.64;54.16;64462.56;4979571;28;45435;-87
2023/03/04 09:05:29;;;;;;;;;38.00;33.25;;;;;8.17;54.18;64524.22;4997922;28;45392;-87
2023/03/04 09:07:54;;;;;;;;;38.25;33.00;;;;;7.98;54.12;64527.09;4996428;28;45625;-87
2023/03/04 09:10:19;;;;;;;;;41.25;32.25;;;;;7.22;54.04;64469.59;4997345;28;45356;-87
2023/03/04 09:12:45;;;;;;;;;44.75;37.00;;;;;8.29;53.90;64612.91;4996180;28;45311;-87
2023/03/04 09:15:11;;;;;;;;;44.75;35.75;;;;;7.67;53.18;64623.66;4997535;28;45503;-87
2023/03/04 09:17:37;;;;;;;;;36.75;32.00;;;;;8.18;53.69;64690.53;4997250;28;45394;-87
2023/03/04 09:20:03;;;;;;;;;35.25;31.50;;;;;8.32;53.72;64658.38;4996998;28;45374;-87
2023/03/04 09:22:29;;;;;;;;;42.50;35.75;;;;;8.42;53.74;64588.63;4997164;28;45413;-87
2023/03/04 09:24:54;;;;;;;;;31.50;28.25;;;;;8.36;53.66;64584.50;4979712;28;45479;-86
2023/03/04 09:27:19;;;;;;;;;32.25;29.50;;;;;7.99;53.72;64530.28;4989606;28;45420;-86
2023/03/04 09:29:45;;;;;;;;;32.25;25.00;;;;;8.36;53.40;64468.72;4959331;28;45546;-87
2023/03/04 09:32:10;;;;;;;;;28.25;27.75;;;;;7.74;53.47;64434.38;4959989;28;45408;-87
2023/03/04 09:34:36;;;;;;;;;29.50;26.75;;;;;8.56;52.79;64619.63;4978059;28;45457;-87
2023/03/04 09:37:01;;;;;;;;;29.00;28.00;;;;;8.63;52.67;64682.25;4975784;28;48288;-87
2023/03/04 09:39:26;;;;;;;;;34.00;24.75;;;;;8.24;52.63;64720.97;4977555;28;45504;-87
2023/03/04 09:41:56;;;;;;;;;31.75;22.75;;;;;8.18;52.42;64883.19;4959649;28;45317;-87
2023/03/04 09:44:29;;;;;;;;;29.50;24.25;;;;;8.54;52.30;64851.69;4959921;28;45566;-87
2023/03/04 09:47:00;;;;;;;;;32.25;30.50;;;;;8.94;51.81;64943.19;4994315;28;45434;-87
2023/03/04 09:49:26;;;;;;;;;27.75;24.50;;;;;7.68;51.45;64887.69;4996906;28;45305;-86
2023/03/04 09:52:08;;;;;;;;;31.75;25.00;;;;;8.39;51.86;64866.31;4979062;28;45355;-87
2023/03/04 09:54:54;;;;;;;;;30.50;25.25;;;;;9.11;52.27;64948.09;4997083;28;45371;-87
2023/03/04 09:57:49;;;;;;;;;29.50;26.50;;;;;9.13;51.75;64987.84;4996550;28;46507;-87
2023/03/04 10:00:23;;;;;;;;;27.75;24.00;;;;;8.79;51.75;64955.19;4988459;28;45459;-87
2023/03/04 10:02:57;;;;;;;;;25.25;21.75;;;;;9.22;52.12;64942.66;4978672;28;45449;-88
2023/03/04 10:05:25;;;;;;;;;21.75;20.25;;;;;8.79;52.07;64876.19;4979429;28;45537;-87
2023/03/04 10:08:04;;;;;;;;;20.50;18.25;;;;;8.73;51.77;64948.97;4994723;28;48497;-87
2023/03/04 10:10:39;;;;;;;;;24.00;21.50;;;;;7.95;51.78;64844.03;4994969;28;45316;-87
2023/03/04 10:13:13;;;;;;;;;21.75;17.50;;;;;9.36;51.63;64965.28;4995236;28;45379;-87
2023/03/04 10:15:43;;;;;;;;;20.00;17.33;;;;;9.39;51.13;65089.94;4996952;28;45416;-87
2023/03/04 10:18:27;;;;;;;;;19.50;18.50;;;;;9.39;51.42;65050.97;4996544;28;45745;-87
2023/03/04 10:21:14;;;;;;;;;16.33;16.00;;;;;8.86;51.35;64978.91;4997786;28;45413;-86
2023/03/04 10:23:40;;;;;;;;;21.00;17.67;;;;;9.14;51.32;65025.28;4999915;28;45375;-87
2023/03/04 10:26:16;;;;;;;;;20.00;16.00;;;;;9.01;51.48;65077.00;4982742;28;45300;-87
2023/03/04 10:28:42;;;;;;;;;20.33;17.00;;;;;9.52;51.50;65107.88;4981667;28;47714;-87
2023/03/04 10:31:07;;;;;;;;;14.67;14.00;;;;;9.57;51.27;65096.59;4999769;28;45486;-87
2023/03/04 10:33:36;;;;;;;;;15.00;14.67;;;;;8.66;50.93;65077.97;4982147;28;45496;-86
2023/03/04 10:36:21;;;;;;;;;20.00;16.33;;;;;9.63;51.05;65106.59;4998490;28;45393;-87
2023/03/04 10:38:47;;;;;;;;;12.00;10.67;;;;;9.27;51.28;65063.72;4999472;28;46412;-87
2023/03/04 10:41:23;;;;;;;;;18.67;14.33;;;;;9.61;51.35;65077.94;4999232;28;45549;-87
2023/03/04 10:43:58;;;;;;;;;15.33;13.33;;;;;9.59;50.84;65112.59;4998079;28;45411;-87
2023/03/04 10:46:23;;;;;;;;;15.33;12.33;;;;;9.73;50.82;65186.50;4999718;28;45588;-87
2023/03/04 10:48:49;;;;;;;;;20.33;18.67;;;;;9.28;51.26;65093.88;4999320;28;46584;-87
2023/03/04 10:51:20;;;;;;;;;17.33;14.00;;;;;8.94;50.96;65072.28;4981759;28;45984;-87
2023/03/04 10:53:49;;;;;;;;;17.33;15.00;;;;;9.18;50.75;65101.00;4999351;28;45399;-87
2023/03/04 10:56:35;;;;;;;;;15.00;11.67;;;;;9.84;51.10;65135.09;4999594;28;45401;-87
2023/03/04 10:59:31;;;;;;;;;17.00;10.33;;;;;9.88;50.76;65176.59;4999242;28;45408;-87
2023/03/04 11:02:09;;;;;;;;;14.00;11.33;;;;;9.63;50.82;65161.41;4998706;28;45610;-87
2023/03/04 11:04:35;;;;;;;;;15.00;13.00;;;;;9.63;50.67;65090.78;4982027;28;45388;-92
2023/03/04 11:07:00;;;;;;;;;17.67;12.33;;;;;9.38;50.26;65059.81;4998618;28;45469;-90
2023/03/04 11:09:28;;;;;;;;;14.67;11.67;;;;;10.09;50.86;65104.81;4998356;28;47499;-89
2023/03/04 11:11:57;;;;;;;;;15.33;11.33;;;;;9.44;50.60;65032.34;4981686;28;45921;-89
2023/03/04 11:14:35;;;;;;;;;12.67;12.33;;;;;9.85;50.68;65091.38;4998790;28;45467;-90
2023/03/04 11:17:14;;;;;;;;;18.33;13.33;;;;;9.28;50.36;65060.16;4998430;28;45482;-90
2023/03/04 11:19:41;;;;;;;;;14.67;12.67;;;;;8.72;50.11;65005.22;4999234;28;46617;-89
2023/03/04 11:22:13;;;;;;;;;13.67;10.00;;;;;9.66;50.09;65210.22;4999539;28;45667;-90
2023/03/04 11:24:39;;;;;;;;;14.33;11.67;;;;;9.70;49.91;65264.88;4999096;28;45380;-90
2023/03/04 11:27:17;;;;;;;;;18.00;13.67;;;;;10.31;50.03;65245.38;4998367;28;45355;-90
2023/03/04 11:30:03;;;;;;;;;12.67;11.00;;;;;10.33;49.81;65255.56;4998915;28;46678;-90
2023/03/04 11:32:39;;;;;;;;;16.67;11.00;;;;;9.96;50.07;65232.03;4999071;28;45391;-90
2023/03/04 11:35:23;;;;;;;;;16.67;13.67;;;;;10.11;49.62;65246.97;4999262;28;45330;-90
2023/03/04 11:38:29;;;;;;;;;7.00;7.00;;;;;10.49;49.67;65246.75;4999451;28;45452;-90
2023/03/04 11:41:03;;;;;;;;;15.00;12.33;;;;;10.25;49.49;65330.94;4938217;28;45431;-90
2023/03/04 11:43:37;;;;;;;;;15.67;11.33;;;;;9.97;49.70;65219.97;4938220;28;46341;-89
2023/03/04 11:46:39;;;;;;;;;15.33;12.00;;;;;10.61;49.73;65280.94;4945109;28;45523;-90
2023/03/04 11:49:14;;;;;;;;;13.00;11.00;;;;;10.65;49.26;65372.69;4922370;28;45529;-89
2023/03/04 11:51:55;;;;;;;;;14.00;9.00;;;;;10.40;49.04;65394.44;4937872;28;45598;-90
2023/03/04 11:54:23;;;;;;;;;14.33;12.33;;;;;10.66;48.95;65455.72;4938376;28;45399;-90
2023/03/04 11:56:48;;;;;;;;;22.33;16.67;;;;;10.69;49.32;65445.91;4921814;28;45319;-89
2023/03/04 11:59:46;;;;;;;;;20.33;17.33;;;;;10.72;49.38;65456.69;4938543;28;45421;-90
2023/03/04 12:02:16;;;;;;;;;11.67;11.33;;;;;10.80;48.93;65452.59;4926580;28;47389;-90
2023/03/04 12:04:41;;;;;;;;;15.00;14.00;;;;;10.82;49.06;65517.72;4937648;28;45273;-87
2023/03/04 12:07:37;;;;;;;;;18.00;16.67;;;;;10.85;48.80;65473.56;4921614;28;45461;-87
2023/03/04 12:10:20;;;;;;;;;15.33;14.00;;;;;10.78;48.86;65485.22;4921159;28;45363;-87
2023/03/04 12:12:57;;;;;;;;;20.33;15.67;;;;;10.91;48.75;65564.97;4937319;28;46269;-87
2023/03/04 12:15:23;;;;;;;;;12.67;12.67;;;;;10.94;48.73;65581.63;4962379;28;46250;-87
2023/03/04 12:18:25;;;;;;;;;14.00;12.00;;;;;10.94;48.55;65595.41;4997924;28;45422;-87
2023/03/04 12:21:03;;;;;;;;;16.00;15.33;;;;;10.91;48.54;65641.63;4980760;28;45298;-87
2023/03/04 12:23:51;;;;;;;;;16.00;13.00;;;;;10.97;48.67;65629.97;4997726;28;45504;-87
2023/03/04 12:26:28;;;;;;;;;17.00;12.00;;;;;10.93;48.17;65781.97;4980279;28;45482;-86
2023/03/04 12:29:06;;;;;;;;;18.33;17.67;;;;;10.39;48.13;65734.56;4998092;28;45457;-87
2023/03/04 12:31:37;;;;;;;;;24.00;14.00;;;;;10.97;48.17;65785.94;4998356;28;45376;-87
2023/03/04 12:34:21;;;;;;;;;13.00;12.00;;;;;10.96;48.37;65821.81;4998001;28;45810;-87
2023/03/04 12:36:49;;;;;;;;;13.50;11.50;;;;;10.96;48.38;65851.47;4979994;28;45499;-87
2023/03/04 12:39:29;;;;;;;;;12.00;12.00;;;;;10.65;48.10;65845.06;4997808;28;45488;-87
2023/03/04 12:42:22;;;;;;;;;9.00;9.00;;;;;10.96;48.24;65862.03;4995830;28;45525;-87
2023/03/04 12:45:02;;;;;;;;;10.67;10.00;;;;;10.65;48.51;65763.13;4997485;28;46550;-87
2023/03/04 12:47:54;;;;;;;;;10.00;8.00;;;;;10.87;48.29;65845.88;4998124;28;45650;-87
2023/03/04 12:50:38;;;;;;;;;9.67;8.33;;;;;10.95;48.73;65855.59;4997862;28;45347;-87
2023/03/04 12:53:32;;;;;;;;;11.00;9.00;;;;;10.75;48.30;65875.00;4997869;28;45449;-87
2023/03/04 12:55:58;;;;;;;;;13.00;12.00;;;;;10.66;48.30;65886.41;4917312;28;45596;-87
2023/03/04 12:58:27;;;;;;;;;8.33;8.33;;;;;10.94;48.42;65951.72;4917177;28;45433;-87
2023/03/04 13:00:58;;;;;;;;;17.00;13.67;;;;;10.94;48.47;65922.63;4917197;28;45441;-87
2023/03/04 13:03:39;;;;;;;;;11.33;10.00;;;;;10.96;48.23;65949.28;4902125;28;45610;-87
2023/03/04 13:06:22;;;;;;;;;10.33;10.00;;;;;10.97;48.23;65939.84;4917125;28;46176;-87
2023/03/04 13:08:54;;;;;;;;;9.67;9.00;;;;;10.98;48.11;65908.72;4917226;28;45907;-87
2023/03/04 13:11:25;;;;;;;;;12.00;8.67;;;;;10.96;48.41;65932.84;4901414;28;45473;-87
2023/03/04 13:14:13;;;;;;;;;13.00;11.00;;;;;10.98;48.38;65982.75;4901336;28;45617;-87
2023/03/04 13:16:47;;;;;;;;;11.33;10.00;;;;;10.72;48.34;65971.97;4900946;28;47023;-87
2023/03/04 13:19:49;;;;;;;;;14.00;12.00;;;;;10.99;48.29;65934.22;4917313;28;45373;-87
2023/03/04 13:22:42;;;;;;;;;12.00;10.67;;;;;11.04;48.19;65989.03;4901233;28;45475;-87
2023/03/04 13:25:27;;;;;;;;;12.00;12.00;;;;;10.85;48.05;65938.75;4901765;28;45468;-87
2023/03/04 13:27:59;;;;;;;;;13.33;9.67;;;;;11.05;48.77;65842.69;4900736;28;48146;-87
2023/03/04 13:30:54;;;;;;;;;10.33;9.33;;;;;10.88;48.65;65873.47;4901059;28;45427;-88
2023/03/04 13:33:22;;;;;;;;;13.00;10.00;;;;;11.08;48.67;65906.38;4969915;28;45370;-87
2023/03/04 13:35:56;;;;;;;;;10.00;10.00;;;;;10.30;48.51;65843.09;4979047;28;45489;-87
2023/03/04 13:38:29;;;;;;;;;8.33;8.33;;;;;11.10;48.51;65919.25;4979322;28;48252;-87
2023/03/04 13:41:06;;;;;;;;;12.00;9.00;;;;;11.11;48.20;65933.59;4996885;28;45448;-86
2023/03/04 13:43:42;;;;;;;;;11.67;10.00;;;;;11.11;48.46;65979.13;4979282;28;45484;-87
2023/03/04 13:46:17;;;;;;;;;11.67;10.67;;;;;11.10;48.74;65950.97;4995937;28;45534;-87
2023/03/04 13:49:06;;;;;;;;;17.00;14.67;;;;;10.76;48.30;65934.28;4978949;28;48559;-87
2023/03/04 13:51:40;;;;;;;;;15.33;12.67;;;;;11.08;48.33;65946.59;4996525;28;45344;-87
2023/03/04 13:54:25;;;;;;;;;14.33;14.33;;;;;11.09;48.39;65966.25;5000360;28;45373;-87
2023/03/04 13:56:59;;;;;;;;;12.00;11.00;;;;;11.06;48.59;65949.03;5003702;28;45383;-87
2023/03/04 13:59:31;;;;;;;;;12.33;10.67;;;;;10.67;48.30;65940.41;4985524;28;47532;-87
2023/03/04 14:02:00;;;;;;;;;11.00;8.00;;;;;11.06;48.41;65951.69;4984945;28;45412;-87
2023/03/04 14:04:30;;;;;;;;;8.00;7.33;;;;;11.07;48.05;66024.22;5003189;28;45371;-86
2023/03/04 14:06:57;;;;;;;;;7.67;7.67;;;;;10.88;48.39;65958.63;5003493;28;45330;-87
2023/03/04 14:09:29;;;;;;;;;10.33;9.00;;;;;10.88;48.68;66055.84;4985327;28;47465;-87
2023/03/04 14:11:57;;;;;;;;;10.33;8.00;;;;;10.42;48.66;65983.66;5001750;28;45369;-87
2023/03/04 14:14:29;;;;;;;;;10.33;9.00;;;;;10.74;48.53;66022.41;5001946;28;45399;-87
2023/03/04 14:17:00;;;;;;;;;9.00;8.00;;;;;10.99;48.93;66016.19;5001909;28;45395;-87
2023/03/04 14:19:27;;;;;;;;;8.50;7.00;;;;;11.05;48.75;65935.25;4985074;28;48911;-87
2023/03/04 14:21:54;;;;;;;;;8.00;8.00;;;;;11.06;48.56;65980.75;4985151;28;45444;-87
2023/03/04 14:24:20;;;;;;;;;10.33;7.00;;;;;11.08;49.04;65961.91;4985039;28;45339;-86
2023/03/04 14:26:46;;;;;;;;;10.00;7.67;;;;;10.47;48.71;65980.88;5001840;28;45338;-87
2023/03/04 14:29:28;;;;;;;;;8.67;8.33;;;;;10.64;48.67;65934.31;5002607;28;45637;-87
2023/03/04 14:31:54;;;;;;;;;9.00;9.00;;;;;10.90;48.44;65941.84;5002631;28;45340;-87
2023/03/04 14:34:39;;;;;;;;;9.33;7.33;;;;;10.97;48.96;65939.28;5001610;28;45416;-87
2023/03/04 14:37:20;;;;;;;;;10.67;8.67;;;;;11.08;48.66;65967.19;5003325;28;45424;-87
2023/03/04 14:39:49;;;;;;;;;11.67;7.00;;;;;10.67;48.61;65932.47;5001077;28;47168;-87
2023/03/04 14:42:16;;;;;;;;;7.33;7.33;;;;;10.71;48.51;65968.78;4984903;28;45975;-87
2023/03/04 14:44:47;;;;;;;;;10.00;7.33;;;;;11.08;48.55;66022.72;5001288;28;45360;-87
2023/03/04 14:47:36;;;;;;;;;10.67;7.33;;;;;10.83;48.49;65978.75;4982105;28;45285;-87
2023/03/04 14:50:12;;;;;;;;;10.00;7.00;;;;;10.77;48.23;66035.88;4965422;28;47552;-86
2023/03/04 14:52:40;;;;;;;;;8.67;7.00;;;;;10.31;47.78;66013.84;4965057;28;45300;-87
2023/03/04 14:55:26;;;;;;;;;9.00;6.33;;;;;10.95;48.11;66042.75;4983007;28;45369;-87
2023/03/04 14:58:19;;;;;;;;;11.67;9.00;;;;;11.18;47.84;66092.94;4983095;28;45286;-87
2023/03/04 15:00:46;;;;;;;;;6.67;6.67;;;;;10.84;47.85;66062.41;4982232;28;47989;-87
2023/03/04 15:03:28;;;;;;;;;14.67;11.67;;;;;10.61;47.61;66102.66;4984578;28;45388;-89
2023/03/04 15:05:57;;;;;;;;;13.67;9.67;;;;;10.24;47.46;66079.16;4998579;28;45487;-90
2023/03/04 15:08:36;;;;;;;;;11.33;9.00;;;;;10.25;47.85;66123.13;4998886;28;45622;-90
2023/03/04 15:11:04;;;;;;;;;7.67;7.00;;;;;11.19;47.60;66246.91;4998284;28;47175;-90
2023/03/04 15:14:00;;;;;;;;;10.67;8.00;;;;;10.69;47.92;66172.03;4982174;28;45370;-90
2023/03/04 15:16:29;;;;;;;;;7.67;7.67;;;;;10.51;47.66;66217.94;4983063;28;45301;-90
2023/03/04 15:19:04;;;;;;;;;11.00;9.00;;;;;10.72;47.34;66213.06;4998466;28;45264;-90
2023/03/04 15:21:39;;;;;;;;;11.33;9.00;;;;;11.18;47.13;66341.56;4998343;28;47585;-90
2023/03/04 15:24:07;;;;;;;;;11.33;8.33;;;;;11.04;47.45;66306.94;4999664;28;45399;-90
2023/03/04 15:26:38;;;;;;;;;8.67;7.00;;;;;11.05;47.42;66284.28;4999706;28;45438;-90
2023/03/04 15:29:12;;;;;;;;;10.33;7.33;;;;;10.51;47.45;66270.78;5000033;28;45351;-90
2023/03/04 15:31:37;;;;;;;;;12.00;10.00;;;;;11.06;47.35;66309.22;4997740;28;46330;-90
2023/03/04 15:34:12;;;;;;;;;12.00;11.00;;;;;10.53;47.48;66296.88;4998312;28;45391;-90
2023/03/04 15:36:37;;;;;;;;;10.00;9.67;;;;;9.97;48.15;66197.09;4997979;28;45363;-90
2023/03/04 15:39:03;;;;;;;;;10.00;9.00;;;;;11.05;47.57;66318.06;4999670;28;45463;-90
2023/03/04 15:41:28;;;;;;;;;11.00;9.00;;;;;10.68;47.57;66245.47;4999196;28;46427;-90
2023/03/04 15:43:54;;;;;;;;;11.00;11.00;;;;;9.83;47.72;66181.59;4999019;28;45340;-90
2023/03/04 15:46:19;;;;;;;;;10.67;10.00;;;;;10.00;47.52;66232.25;4999067;28;45291;-90
2023/03/04 15:48:45;;;;;;;;;15.00;13.00;;;;;11.03;47.33;66377.19;4981923;28;45458;-90
2023/03/04 15:51:16;;;;;;;;;8.67;8.67;;;;;11.00;47.66;66352.56;4981400;28;47613;-90
2023/03/04 15:53:47;;;;;;;;;8.33;7.33;;;;;11.13;47.60;66345.81;4981109;28;45390;-90
2023/03/04 15:56:19;;;;;;;;;15.67;12.00;;;;;10.67;47.52;66354.72;4981407;28;45444;-90
2023/03/04 15:58:51;;;;;;;;;13.00;11.67;;;;;10.51;47.58;66318.94;4999624;28;45371;-90
2023/03/04 16:01:17;;;;;;;;;14.67;13.67;;;;;10.49;47.56;66350.41;4980890;28;47354;-89
2023/03/04 16:03:42;;;;;;;;;13.00;13.00;;;;;11.02;47.47;66581.69;4998748;28;45416;-90
2023/03/04 16:06:10;;;;;;;;;6.00;6.00;;;;;10.49;47.57;66471.94;4997967;28;45331;-90
2023/03/04 16:08:36;;;;;;;;;11.33;9.00;;;;;10.75;47.40;66409.47;4999213;28;45506;-90
2023/03/04 16:11:01;;;;;;;;;11.00;8.00;;;;;10.27;47.85;66404.81;4997512;28;47083;-90
2023/03/04 16:13:27;;;;;;;;;8.00;8.00;;;;;10.83;47.68;66465.72;4998855;28;45448;-90
2023/03/04 16:15:52;;;;;;;;;9.33;8.00;;;;;11.03;47.86;66395.69;4998499;28;45584;-90
2023/03/04 16:18:18;;;;;;;;;9.00;8.33;;;;;10.62;47.51;66444.66;4997753;28;45367;-91
2023/03/04 16:20:46;;;;;;;;;8.00;8.00;;;;;10.97;47.69;66484.53;4998495;28;45512;-90
2023/03/04 16:23:16;;;;;;;;;8.00;8.00;;;;;10.15;47.75;66314.97;4975597;28;45351;-91
2023/03/04 16:25:43;;;;;;;;;11.00;10.67;;;;;10.43;47.55;66393.69;4961116;28;45471;-90
2023/03/04 16:28:10;;;;;;;;;11.00;8.00;;;;;10.96;47.69;66451.66;4977941;28;45403;-90
2023/03/04 16:30:36;;;;;;;;;8.00;8.00;;;;;10.97;48.01;66465.44;4960764;28;47685;-90
2023/03/04 16:33:01;;;;;;;;;14.00;11.00;;;;;10.55;48.04;66444.50;4961339;28;45371;-91
2023/03/04 16:35:27;;;;;;;;;11.00;11.00;;;;;10.73;47.53;66483.81;4977712;28;45862;-91
2023/03/04 16:37:54;;;;;;;;;9.67;8.00;;;;;10.95;48.02;66492.78;4977953;28;45455;-91
2023/03/04 16:40:24;;;;;;;;;8.67;7.33;;;;;10.96;47.86;66437.84;4977276;28;47096;-90
2023/03/04 16:42:49;;;;;;;;;11.33;9.00;;;;;10.24;47.50;66412.50;4960978;28;45921;-91
2023/03/04 16:45:20;;;;;;;;;9.33;9.33;;;;;10.93;47.76;66460.81;4982017;28;45570;-90
2023/03/04 16:47:46;;;;;;;;;12.00;9.00;;;;;10.78;47.73;66460.50;4998593;28;45397;-91
2023/03/04 16:50:19;;;;;;;;;8.33;8.00;;;;;10.48;47.72;66484.00;4980603;28;47014;-90
2023/03/04 16:52:47;;;;;;;;;6.33;5.00;;;;;10.76;47.68;66515.78;4980612;28;45570;-90
2023/03/04 16:55:19;;;;;;;;;6.00;6.00;;;;;10.44;47.72;66466.75;4980816;28;45512;-90
2023/03/04 16:57:45;;;;;;;;;7.33;6.67;;;;;10.67;47.86;66484.22;4980673;28;45659;-91
2023/03/04 17:00:18;;;;;;;;;7.00;6.33;;;;;10.87;47.97;66538.50;4980062;28;47101;-90
2023/03/04 17:02:46;;;;;;;;;9.00;7.67;;;;;10.44;47.80;66482.59;4980149;28;45300;-90
2023/03/04 17:05:17;;;;;;;;;6.67;6.00;;;;;10.51;47.97;66466.31;4996956;28;45458;-90
2023/03/04 17:07:42;;;;;;;;;8.67;8.67;;;;;10.70;47.72;66432.78;4997001;28;45599;-90
2023/03/04 17:10:08;;;;;;;;;8.67;8.67;;;;;10.43;48.12;66433.88;4996902;28;48041;-91
2023/03/04 17:12:33;;;;;;;;;9.67;9.33;;;;;9.97;48.28;66357.56;4996206;28;45319;-89
2023/03/04 17:14:59;;;;;;;;;6.00;6.00;;;;;10.72;48.27;66419.22;4980191;28;45401;-90
2023/03/04 17:17:24;;;;;;;;;11.33;10.00;;;;;10.86;48.44;66431.59;4997240;28;45335;-91
2023/03/04 17:19:49;;;;;;;;;15.00;12.00;;;;;10.13;48.00;66426.19;4997814;28;46291;-90
2023/03/04 17:22:15;;;;;;;;;10.67;9.00;;;;;10.70;48.28;66529.97;4980203;28;45714;-90
2023/03/04 17:24:40;;;;;;;;;10.33;10.33;;;;;10.44;48.33;66418.59;4997553;28;45332;-90
2023/03/04 17:27:06;;;;;;;;;14.00;12.67;;;;;9.57;48.17;66410.75;4996837;28;45556;-90
2023/03/04 17:29:31;;;;;;;;;10.33;9.33;;;;;9.54;48.73;66295.91;4997311;28;45416;-90
2023/03/04 17:31:56;;;;;;;;;9.67;8.33;;;;;10.77;48.53;66464.06;4996428;28;45798;-90
2023/03/04 17:34:22;;;;;;;;;12.00;12.00;;;;;10.70;48.31;66463.91;4996282;28;45384;-91
2023/03/04 17:36:47;;;;;;;;;9.00;9.00;;;;;10.35;48.67;66408.81;4998009;28;45272;-90
2023/03/04 17:39:13;;;;;;;;;8.00;8.00;;;;;10.33;48.18;66528.56;4997422;28;45421;-90
2023/03/04 17:41:38;;;;;;;;;9.67;8.00;;;;;9.93;48.22;66335.63;4979620;28;45715;-89
2023/03/04 17:44:04;;;;;;;;;10.67;9.00;;;;;10.59;48.78;66546.91;4996320;28;45436;-90